Beauvechain, Belgium
Current Conditions -  °F | °C
As of 1:33 PM on Tuesday 21 Oct 2014 (Local Time) from EBBE Reporting Station
Light Rain Light Rain  
Wind Chill: 55°   Ceiling: 1500
Heat Index: 55°   Visibility: 2.5mi
Dew Point: 52°   Wind: 24mph
Humidity: 88%   Direction: 220°SW
Pressure: 29.59"   Gusts: 38mph
Location:  50.77°N, 4.77°E
Report Text: EBBE 211133Z 22021G33KT 4000 -RA SCT012 BKN015 BKN022 13/11 Q1002 GRN GRN TEMPO YLO
Loading
Personal Weather Stations






























Interactive Weather Map
Tropical Storm Tracking
New forecast layout! Learn more

10-Day Weather Forecast

Advertisements
Track Severe Weather on mobile